Time;durP1;ratioP1;P1;durP2;ratioP2;P2;SDS_P1;SDS_P2;PMS_P1;PMS_P2;Temp;Humidity;BMP_temperature;BMP_pressure;BME280_temperature;BME280_humidity;BME280_pressure;Samples;Min_cycle;Max_cycle;Signal;HPM_P1;HPM_P2
2020/12/21 00:01:57;;;;;;;12.03;2.67;;;6.40;99.90;;;;;;3978293;29;20213;-92
2020/12/21 00:03:58;;;;;;;16.00;3.23;;;6.50;99.90;;;;;;4008168;29;20255;-92
2020/12/21 00:05:58;;;;;;;19.27;3.73;;;6.40;99.90;;;;;;3993305;29;20172;-92
2020/12/21 00:08:01;;;;;;;14.47;3.57;;;6.40;99.90;;;;;;4008305;29;20206;-92
2020/12/21 00:10:03;;;;;;;16.23;3.30;;;6.40;99.90;;;;;;3978062;29;20187;-91
2020/12/21 00:12:04;;;;;;;14.37;3.00;;;6.40;99.90;;;;;;4008479;29;20178;-91
2020/12/21 00:14:06;;;;;;;16.30;3.40;;;6.30;99.90;;;;;;3978008;29;20211;-92
2020/12/21 00:16:07;;;;;;;14.10;3.67;;;6.40;99.90;;;;;;3993023;29;20187;-91
2020/12/21 00:18:07;;;;;;;18.27;3.00;;;6.50;99.90;;;;;;3977942;29;20177;-93
2020/12/21 00:20:08;;;;;;;15.03;3.30;;;6.50;99.90;;;;;;3992776;29;20215;-92
2020/12/21 00:22:09;;;;;;;18.40;3.67;;;6.60;99.90;;;;;;3978048;29;20228;-93
2020/12/21 00:24:10;;;;;;;16.07;3.77;;;6.50;99.90;;;;;;3992976;29;20204;-91
2020/12/21 00:26:10;;;;;;;16.20;4.50;;;6.50;99.90;;;;;;3977822;29;20188;-92
2020/12/21 00:28:11;;;;;;;16.40;3.60;;;6.50;99.90;;;;;;3992807;29;20259;-92
2020/12/21 00:30:12;;;;;;;14.70;3.23;;;6.50;99.90;;;;;;3978386;29;20226;-91
2020/12/21 00:32:12;;;;;;;15.90;3.40;;;6.40;99.90;;;;;;3992740;29;20231;-91
2020/12/21 00:34:14;;;;;;;12.07;3.63;;;6.50;99.90;;;;;;3977603;29;20208;-94
2020/12/21 00:36:15;;;;;;;18.70;3.37;;;6.50;99.90;;;;;;4007731;29;20612;-91
2020/12/21 00:38:16;;;;;;;15.77;3.17;;;6.40;99.90;;;;;;3992878;29;20210;-91
2020/12/21 00:40:16;;;;;;;12.27;3.57;;;6.50;99.90;;;;;;3993302;29;20219;-91
2020/12/21 00:42:18;;;;;;;15.63;3.60;;;6.50;99.90;;;;;;3977121;29;20184;-92
2020/12/21 00:44:19;;;;;;;13.80;3.13;;;6.60;99.90;;;;;;3977355;29;20262;-91
2020/12/21 00:46:22;;;;;;;10.80;3.03;;;6.50;99.90;;;;;;3992637;29;20199;-91
2020/12/21 00:48:23;;;;;;;21.50;3.43;;;6.50;99.90;;;;;;4007537;29;20179;-91
2020/12/21 00:50:23;;;;;;;17.13;3.30;;;6.50;99.90;;;;;;4007549;29;20223;-91
2020/12/21 00:52:26;;;;;;;13.80;3.07;;;6.50;99.90;;;;;;3977700;29;20177;-91
2020/12/21 00:54:26;;;;;;;13.47;3.67;;;6.50;99.90;;;;;;4007423;29;20207;-91
2020/12/21 00:56:27;;;;;;;14.27;2.90;;;6.60;99.90;;;;;;3992336;29;20182;-90
2020/12/21 00:58:29;;;;;;;14.77;3.40;;;6.60;99.90;;;;;;4007671;29;20197;-92
2020/12/21 01:00:30;;;;;;;14.87;2.17;;;6.60;99.90;;;;;;3977229;29;20208;-91
2020/12/21 01:02:31;;;;;;;15.20;3.10;;;6.70;99.90;;;;;;4007398;29;20646;-92
2020/12/21 01:04:31;;;;;;;16.57;3.70;;;6.60;99.90;;;;;;3992517;29;20207;-93
2020/12/21 01:06:33;;;;;;;15.97;3.80;;;6.70;99.90;;;;;;4007358;29;20183;-91
2020/12/21 01:08:35;;;;;;;20.77;3.60;;;6.80;99.90;;;;;;3977290;29;20223;-91
2020/12/21 01:10:35;;;;;;;22.87;3.73;;;6.80;99.90;;;;;;3992410;29;20180;-91
2020/12/21 01:12:36;;;;;;;17.43;3.63;;;6.90;99.90;;;;;;3992432;29;20662;-91
2020/12/21 01:14:37;;;;;;;16.57;4.37;;;6.80;99.90;;;;;;3992302;29;20292;-91
2020/12/21 01:16:37;;;;;;;18.40;3.60;;;6.90;99.90;;;;;;4007571;29;20171;-92
2020/12/21 01:18:38;;;;;;;13.67;3.50;;;6.80;99.90;;;;;;3977287;29;20187;-91
2020/12/21 01:20:40;;;;;;;16.90;3.30;;;6.80;99.90;;;;;;4007336;29;20639;-92
2020/12/21 01:22:41;;;;;;;24.47;3.67;;;6.80;99.90;;;;;;3977070;29;20315;-92
2020/12/21 01:24:42;;;;;;;14.57;3.00;;;6.80;99.90;;;;;;4006985;29;20206;-92
2020/12/21 01:26:43;;;;;;;10.10;3.40;;;6.90;99.90;;;;;;3977358;29;20181;-91
2020/12/21 01:28:44;;;;;;;12.63;3.43;;;6.80;99.90;;;;;;4007247;29;20171;-92
2020/12/21 01:30:45;;;;;;;20.63;4.20;;;6.90;99.90;;;;;;3977308;29;20180;-92
2020/12/21 01:32:45;;;;;;;15.57;3.30;;;6.80;99.90;;;;;;4007453;29;20175;-92
2020/12/21 01:34:46;;;;;;;17.37;3.60;;;6.80;99.90;;;;;;3992375;29;20195;-92
2020/12/21 01:36:47;;;;;;;27.33;4.13;;;6.80;99.90;;;;;;4007369;29;20191;-90
2020/12/21 01:38:48;;;;;;;16.57;3.97;;;6.80;99.90;;;;;;3992375;29;20186;-91
2020/12/21 01:40:48;;;;;;;17.93;4.07;;;6.80;99.90;;;;;;3977127;29;20191;-91
2020/12/21 01:42:49;;;;;;;15.00;4.00;;;6.80;99.90;;;;;;4006888;29;20226;-92
2020/12/21 01:44:50;;;;;;;17.17;4.23;;;6.70;99.90;;;;;;3977052;29;20208;-93
2020/12/21 01:46:51;;;;;;;18.33;5.00;;;6.70;99.90;;;;;;4006937;29;20187;-93
2020/12/21 01:48:51;;;;;;;20.93;5.13;;;6.80;99.90;;;;;;3976903;29;20272;-92
2020/12/21 01:50:52;;;;;;;16.70;5.13;;;6.80;99.90;;;;;;4007140;29;20178;-91
2020/12/21 01:52:53;;;;;;;17.83;5.37;;;6.80;99.90;;;;;;3976909;29;20188;-92
2020/12/21 01:54:54;;;;;;;23.30;6.10;;;6.80;99.90;;;;;;4008142;29;20214;-92
2020/12/21 01:56:55;;;;;;;24.40;7.03;;;6.80;99.90;;;;;;3979988;29;20227;-91
2020/12/21 01:58:56;;;;;;;20.13;6.00;;;7.00;99.90;;;;;;4009852;29;20183;-91
2020/12/21 02:00:58;;;;;;;21.83;6.77;;;6.90;99.90;;;;;;3979925;29;20188;-91
2020/12/21 02:02:59;;;;;;;24.67;7.17;;;7.10;99.90;;;;;;4010080;29;20236;-91
2020/12/21 02:05:01;;;;;;;19.50;6.93;;;7.10;99.90;;;;;;3994723;29;20568;-91
2020/12/21 02:07:02;;;;;;;21.37;6.87;;;7.00;99.90;;;;;;3979722;29;20275;-91
2020/12/21 02:09:03;;;;;;;23.40;6.83;;;7.10;99.90;;;;;;4009987;29;20167;-92
2020/12/21 02:11:04;;;;;;;31.23;7.00;;;7.00;99.90;;;;;;3994590;29;20214;-93
2020/12/21 02:13:05;;;;;;;24.67;7.43;;;7.10;99.90;;;;;;4009884;29;20183;-91
2020/12/21 02:15:05;;;;;;;24.53;7.10;;;7.10;99.90;;;;;;4009722;29;20207;-93
2020/12/21 02:17:06;;;;;;;27.37;7.20;;;7.00;99.90;;;;;;3979454;29;20180;-91
2020/12/21 02:19:07;;;;;;;28.77;7.73;;;7.00;99.90;;;;;;4009732;29;20313;-91
2020/12/21 02:21:08;;;;;;;26.17;7.53;;;7.10;99.90;;;;;;3979543;29;20226;-92
2020/12/21 02:23:09;;;;;;;25.20;7.47;;;7.00;99.90;;;;;;4009704;29;20612;-92
2020/12/21 02:25:09;;;;;;;25.50;7.53;;;7.00;99.90;;;;;;3994452;29;20255;-91
2020/12/21 02:27:10;;;;;;;19.13;6.27;;;7.10;99.90;;;;;;4009604;29;20171;-92
2020/12/21 02:29:11;;;;;;;23.27;6.90;;;6.90;99.90;;;;;;3994437;29;20180;-93
2020/12/21 02:31:11;;;;;;;28.80;7.77;;;7.10;99.90;;;;;;4009649;29;20282;-91
2020/12/21 02:33:12;;;;;;;29.03;7.47;;;7.30;99.90;;;;;;3994219;29;20172;-92
2020/12/21 02:35:13;;;;;;;25.10;7.17;;;7.30;99.90;;;;;;3979447;29;20259;-91
2020/12/21 02:37:14;;;;;;;25.00;6.63;;;7.20;99.90;;;;;;4009314;29;20171;-92
2020/12/21 02:39:14;;;;;;;16.90;6.53;;;7.10;99.90;;;;;;3979266;29;20294;-91
2020/12/21 02:41:16;;;;;;;22.17;5.80;;;7.10;99.90;;;;;;4009394;29;20183;-92
2020/12/21 02:43:18;;;;;;;25.00;6.43;;;7.10;99.90;;;;;;3979158;29;20625;-91
2020/12/21 02:45:18;;;;;;;18.03;5.40;;;7.10;99.90;;;;;;4009551;29;20203;-91
2020/12/21 02:47:19;;;;;;;20.07;5.67;;;7.20;99.90;;;;;;3994255;29;20180;-91
2020/12/21 02:49:20;;;;;;;21.37;5.67;;;7.30;99.90;;;;;;4009367;29;20179;-92
2020/12/21 02:51:20;;;;;;;22.83;5.50;;;7.40;99.90;;;;;;3994037;29;20278;-91
2020/12/21 02:53:21;;;;;;;22.37;5.53;;;7.20;99.90;;;;;;4009858;29;20557;-91
2020/12/21 02:55:22;;;;;;;18.77;6.00;;;7.20;99.90;;;;;;3994292;29;20251;-92
2020/12/21 02:57:22;;;;;;;20.17;5.40;;;7.30;99.90;;;;;;4009424;29;20264;-91
2020/12/21 02:59:23;;;;;;;22.87;5.43;;;7.30;99.90;;;;;;4009664;29;20293;-91
2020/12/21 03:01:24;;;;;;;16.87;4.57;;;7.30;99.90;;;;;;3994302;29;20263;-91
2020/12/21 03:03:25;;;;;;;17.10;5.67;;;7.20;99.90;;;;;;3994060;29;20168;-91
2020/12/21 03:05:25;;;;;;;19.77;5.57;;;7.20;99.90;;;;;;4008946;29;20271;-91
2020/12/21 03:07:26;;;;;;;20.20;5.57;;;7.30;99.90;;;;;;3979454;29;20191;-91
2020/12/21 03:09:27;;;;;;;17.30;5.00;;;7.20;99.90;;;;;;4009049;29;20183;-91
2020/12/21 03:11:27;;;;;;;15.93;5.07;;;7.20;99.90;;;;;;3978992;29;20191;-90
2020/12/21 03:13:28;;;;;;;25.50;4.73;;;7.30;99.90;;;;;;4008885;29;20193;-91
2020/12/21 03:15:29;;;;;;;17.80;5.07;;;7.40;99.90;;;;;;3978862;29;20618;-92
2020/12/21 03:17:30;;;;;;;14.97;4.80;;;7.30;99.90;;;;;;3993654;29;20232;-91
2020/12/21 03:19:30;;;;;;;16.17;4.20;;;7.30;99.90;;;;;;3993643;29;20351;-90
2020/12/21 03:21:32;;;;;;;18.50;4.67;;;7.40;99.90;;;;;;3993611;29;20176;-92
2020/12/21 03:23:32;;;;;;;23.23;4.80;;;7.40;99.90;;;;;;3993575;29;20188;-91
2020/12/21 03:25:33;;;;;;;17.20;4.37;;;7.50;99.90;;;;;;3978864;29;20290;-92
2020/12/21 03:27:35;;;;;;;17.93;4.00;;;7.50;99.90;;;;;;3993748;29;20183;-92
2020/12/21 03:29:36;;;;;;;20.43;4.70;;;7.40;99.90;;;;;;4008762;29;20262;-92
2020/12/21 03:31:37;;;;;;;18.33;5.00;;;7.40;99.90;;;;;;3978520;29;20191;-91
2020/12/21 03:33:37;;;;;;;14.30;4.17;;;7.40;99.90;;;;;;4008630;29;20179;-91
2020/12/21 03:35:38;;;;;;;21.10;4.27;;;7.50;99.90;;;;;;3978847;29;20192;-92
2020/12/21 03:37:39;;;;;;;17.67;4.80;;;7.40;99.90;;;;;;4008618;29;20187;-92
2020/12/21 03:39:39;;;;;;;13.23;3.97;;;7.50;99.90;;;;;;3978478;29;20396;-90
2020/12/21 03:41:40;;;;;;;15.20;4.17;;;7.50;99.90;;;;;;4008674;29;20266;-91
2020/12/21 03:43:41;;;;;;;15.17;4.37;;;7.50;99.90;;;;;;3978115;29;20256;-91
2020/12/21 03:45:42;;;;;;;17.77;3.67;;;7.60;99.90;;;;;;4008506;29;20179;-91
2020/12/21 03:47:42;;;;;;;10.33;3.70;;;7.50;99.90;;;;;;3978425;29;20188;-91
2020/12/21 03:49:43;;;;;;;15.47;4.20;;;7.60;99.90;;;;;;3993163;29;20184;-91
2020/12/21 03:51:44;;;;;;;15.47;3.47;;;7.60;99.90;;;;;;3978396;29;20177;-90
2020/12/21 03:53:44;;;;;;;15.73;4.27;;;7.60;99.90;;;;;;4008202;29;20179;-93
2020/12/21 03:55:45;;;;;;;19.03;4.97;;;7.60;99.90;;;;;;3978258;29;20184;-91
2020/12/21 03:57:46;;;;;;;28.93;5.17;;;7.60;99.90;;;;;;3993249;29;20180;-92
2020/12/21 03:59:46;;;;;;;18.57;4.43;;;7.60;99.90;;;;;;3978120;29;20212;-92
2020/12/21 04:01:47;;;;;;;18.20;4.50;;;7.60;99.90;;;;;;4008275;29;20179;-91
2020/12/21 04:03:48;;;;;;;18.07;4.70;;;7.70;99.90;;;;;;3978032;29;20219;-91
2020/12/21 04:05:48;;;;;;;23.60;4.97;;;7.70;99.90;;;;;;4008178;29;20167;-90
2020/12/21 04:07:49;;;;;;;20.43;5.30;;;7.80;99.90;;;;;;3978028;29;20187;-91
2020/12/21 04:09:49;;;;;;;19.80;4.87;;;7.70;99.90;;;;;;4008324;29;20175;-91
2020/12/21 04:11:50;;;;;;;19.63;4.57;;;7.90;99.90;;;;;;3978095;29;20659;-91
2020/12/21 04:13:51;;;;;;;19.97;4.87;;;8.00;99.90;;;;;;4008035;29;20202;-94
2020/12/21 04:15:52;;;;;;;15.70;4.77;;;7.90;99.90;;;;;;3977990;29;20195;-91
2020/12/21 04:17:52;;;;;;;17.37;5.83;;;7.90;99.90;;;;;;4007449;29;20205;-91
2020/12/21 04:19:53;;;;;;;22.43;5.87;;;8.10;99.90;;;;;;3977800;29;20272;-92
2020/12/21 04:21:54;;;;;;;19.33;6.00;;;8.10;99.90;;;;;;3993021;29;20222;-91
2020/12/21 04:23:55;;;;;;;20.70;5.30;;;8.10;99.90;;;;;;3977867;29;20200;-91
2020/12/21 04:25:55;;;;;;;20.23;5.10;;;8.00;99.90;;;;;;4008006;29;20274;-92
2020/12/21 04:27:56;;;;;;;15.20;4.80;;;8.00;99.90;;;;;;3978004;29;20176;-92
2020/12/21 04:29:57;;;;;;;25.63;6.07;;;8.00;99.90;;;;;;4008026;29;20182;-92
2020/12/21 04:31:58;;;;;;;23.03;6.07;;;8.10;99.90;;;;;;3992931;29;20536;-91
2020/12/21 04:33:58;;;;;;;22.50;5.57;;;8.20;99.90;;;;;;4007743;29;20351;-91
2020/12/21 04:35:59;;;;;;;17.47;5.40;;;8.20;99.90;;;;;;3977771;29;20274;-90
2020/12/21 04:38:00;;;;;;;23.70;5.57;;;8.30;99.90;;;;;;4007877;29;20186;-91
2020/12/21 04:40:01;;;;;;;22.23;6.10;;;8.50;99.90;;;;;;3992725;29;20263;-91
2020/12/21 04:42:02;;;;;;;20.43;6.50;;;8.50;99.90;;;;;;4007916;29;20218;-91
2020/12/21 04:44:02;;;;;;;22.53;5.80;;;8.50;99.90;;;;;;4007356;29;20258;-91
2020/12/21 04:46:06;;;;;;;15.90;5.40;;;8.50;99.90;;;;;;3977526;29;20188;-91
2020/12/21 04:48:09;;;;;;;14.00;4.83;;;8.30;99.90;;;;;;4007757;29;20628;-90
2020/12/21 04:50:12;;;;;;;23.67;6.13;;;8.20;99.90;;;;;;3977391;29;20184;-91
2020/12/21 04:52:14;;;;;;;18.40;5.70;;;8.30;99.90;;;;;;4007682;29;20205;-91
2020/12/21 04:54:15;;;;;;;18.87;5.30;;;8.30;99.90;;;;;;3977463;29;20246;-91
2020/12/21 04:56:15;;;;;;;13.87;4.50;;;8.30;99.90;;;;;;4007393;29;20533;-92
2020/12/21 04:58:16;;;;;;;25.37;5.43;;;8.30;99.90;;;;;;3992770;29;20183;-91
2020/12/21 05:00:17;;;;;;;15.27;5.00;;;8.30;99.90;;;;;;4007666;29;20242;-91
2020/12/21 05:02:17;;;;;;;16.27;5.33;;;8.30;99.90;;;;;;3977504;29;20184;-91
2020/12/21 05:04:18;;;;;;;16.47;5.07;;;8.40;99.90;;;;;;4007600;29;20343;-91
2020/12/21 05:06:19;;;;;;;16.83;5.33;;;8.50;99.90;;;;;;3977106;29;20180;-92
2020/12/21 05:08:20;;;;;;;14.77;4.70;;;8.50;99.90;;;;;;4007365;29;20186;-91
2020/12/21 05:10:21;;;;;;;23.27;5.67;;;8.50;99.90;;;;;;3977206;29;20183;-91
2020/12/21 05:12:22;;;;;;;21.93;5.00;;;8.50;99.90;;;;;;3992340;29;20548;-91
2020/12/21 05:14:37;;;;;;;18.20;5.07;;;8.50;99.90;;;;;;3977806;29;20304;-91
2020/12/21 05:16:38;;;;;;;15.93;5.00;;;8.50;99.90;;;;;;3977298;29;20181;-91
2020/12/21 05:18:42;;;;;;;20.80;5.43;;;8.50;99.90;;;;;;4007224;29;20178;-92
2020/12/21 05:20:53;;;;;;;17.43;4.90;;;8.60;99.90;;;;;;3977068;29;20207;-92
2020/12/21 05:22:54;;;;;;;18.90;6.10;;;8.70;99.90;;;;;;4007284;29;20250;-91
2020/12/21 05:25:06;;;;;;;14.97;5.60;;;8.70;99.90;;;;;;3992226;29;20234;-92
2020/12/21 05:27:13;;;;;;;19.53;5.60;;;8.70;99.90;;;;;;3977002;29;20267;-91
2020/12/21 05:29:27;;;;;;;20.13;5.60;;;8.60;99.90;;;;;;4007097;29;20182;-91
2020/12/21 05:31:28;;;;;;;18.83;5.87;;;8.60;99.90;;;;;;3977186;29;20257;-91
2020/12/21 05:33:29;;;;;;;18.53;5.20;;;8.60;99.90;;;;;;3992169;29;20176;-90
2020/12/21 05:35:30;;;;;;;15.43;5.70;;;8.70;99.90;;;;;;3992295;29;20204;-91
2020/12/21 05:37:31;;;;;;;18.07;5.30;;;8.70;99.90;;;;;;3976978;29;20183;-91
2020/12/21 05:39:31;;;;;;;16.73;5.23;;;8.60;99.90;;;;;;4007012;29;20207;-91
2020/12/21 05:41:32;;;;;;;18.47;4.47;;;8.70;99.90;;;;;;3977049;29;20271;-92
2020/12/21 05:43:33;;;;;;;17.10;4.93;;;8.80;99.90;;;;;;3991696;29;20231;-92
2020/12/21 05:45:34;;;;;;;22.60;4.47;;;8.80;99.90;;;;;;3992339;29;20239;-91
2020/12/21 05:47:35;;;;;;;11.93;4.43;;;8.70;99.90;;;;;;3992283;29;20243;-92
2020/12/21 05:49:49;;;;;;;20.10;4.90;;;8.70;99.90;;;;;;3992172;29;20203;-92
2020/12/21 05:51:58;;;;;;;21.27;4.80;;;8.70;99.90;;;;;;3977145;29;20192;-91
2020/12/21 05:54:01;;;;;;;13.50;4.17;;;8.80;99.90;;;;;;3992190;29;20278;-92
2020/12/21 05:56:06;;;;;;;23.93;4.93;;;8.90;99.90;;;;;;3993159;24;20423;-91
2020/12/21 05:58:09;;;;;;;16.17;4.63;;;8.90;99.90;;;;;;3967459;30;20280;-89
2020/12/21 06:00:14;;;;;;;17.80;4.40;;;8.90;99.90;;;;;;3954159;30;20241;-93
2020/12/21 06:02:18;;;;;;;17.13;4.53;;;9.00;99.90;;;;;;3984627;29;20180;-90
2020/12/21 06:04:38;;;;;;;16.53;4.30;;;9.00;99.90;;;;;;3982298;29;20199;-91
2020/12/21 06:06:43;;;;;;;22.30;4.53;;;9.00;99.90;;;;;;3983744;29;20192;-90
2020/12/21 06:08:46;;;;;;;18.90;4.17;;;8.90;99.90;;;;;;3985252;29;20192;-92
2020/12/21 06:10:54;;;;;;;16.00;3.87;;;8.90;99.90;;;;;;3970332;30;20213;-91
2020/12/21 06:12:56;;;;;;;13.20;3.60;;;9.10;99.90;;;;;;3986185;29;20179;-91
2020/12/21 06:15:07;;;;;;;14.07;3.60;;;9.10;99.90;;;;;;3982741;29;20208;-89
2020/12/21 06:17:13;;;;;;;14.43;3.70;;;9.00;99.90;;;;;;3981896;29;20192;-92
2020/12/21 06:19:23;;;;;;;18.13;3.90;;;9.00;99.90;;;;;;3984987;29;20221;-90
2020/12/21 06:21:25;;;;;;;12.50;3.80;;;9.00;99.90;;;;;;3969399;30;20248;-92
2020/12/21 06:23:30;;;;;;;11.43;3.43;;;8.80;99.90;;;;;;3984683;29;20275;-94
2020/12/21 06:25:31;;;;;;;14.23;3.13;;;8.70;99.90;;;;;;3981987;29;20241;-91
2020/12/21 06:27:41;;;;;;;17.83;3.57;;;8.70;99.90;;;;;;3983282;29;20184;-93
2020/12/21 06:29:42;;;;;;;16.93;3.80;;;8.70;99.90;;;;;;3988076;29;20260;-91
2020/12/21 06:31:54;;;;;;;12.13;3.40;;;8.70;99.90;;;;;;3984443;29;20225;-93
2020/12/21 06:33:54;;;;;;;13.30;3.10;;;8.80;99.90;;;;;;3982810;29;20200;-90
2020/12/21 06:36:00;;;;;;;13.80;3.50;;;8.80;99.90;;;;;;3984295;29;20651;-91
2020/12/21 06:38:02;;;;;;;22.70;4.20;;;8.90;99.90;;;;;;3966613;30;20535;-93
2020/12/21 06:40:06;;;;;;;15.43;3.30;;;8.80;99.90;;;;;;3982743;29;20244;-93
2020/12/21 06:42:14;;;;;;;18.80;3.43;;;8.80;99.90;;;;;;3986827;29;20184;-90
2020/12/21 06:44:14;;;;;;;14.23;3.10;;;8.90;99.90;;;;;;3987826;29;20208;-90
2020/12/21 06:46:15;;;;;;;14.30;3.47;;;9.10;99.90;;;;;;3987168;29;20178;-93
2020/12/21 06:48:23;;;;;;;14.70;3.80;;;9.00;99.90;;;;;;3985555;29;20549;-94
2020/12/21 06:50:23;;;;;;;13.40;3.60;;;9.10;99.90;;;;;;3985315;29;20190;-91
2020/12/21 06:52:24;;;;;;;16.77;3.40;;;8.90;99.90;;;;;;3998680;29;20179;-90
2020/12/21 06:54:25;;;;;;;23.77;4.20;;;8.90;99.90;;;;;;3968908;30;20208;-89
2020/12/21 06:56:26;;;;;;;13.27;4.10;;;8.80;99.90;;;;;;3982632;29;20594;-92
2020/12/21 06:58:34;;;;;;;18.60;4.20;;;8.90;99.90;;;;;;3970386;30;20188;-89
2020/12/21 07:00:35;;;;;;;19.27;4.10;;;9.00;99.90;;;;;;3982924;29;20215;-89
2020/12/21 07:02:36;;;;;;;16.57;3.17;;;9.00;99.90;;;;;;3984116;29;20176;-92
2020/12/21 07:04:37;;;;;;;12.30;3.67;;;8.90;99.90;;;;;;3984344;29;20271;-91
2020/12/21 07:06:38;;;;;;;18.40;4.20;;;8.90;99.90;;;;;;3986700;29;20237;-89
2020/12/21 07:08:39;;;;;;;20.80;5.00;;;8.90;99.90;;;;;;3968213;30;20633;-89
2020/12/21 07:10:40;;;;;;;23.33;4.67;;;8.80;99.90;;;;;;3999140;29;20190;-91
2020/12/21 07:12:41;;;;;;;19.53;4.43;;;8.80;99.90;;;;;;3983787;29;20171;-90
2020/12/21 07:14:42;;;;;;;15.70;4.07;;;8.80;99.90;;;;;;4017244;24;20248;-94
2020/12/21 07:16:43;;;;;;;14.00;3.80;;;8.90;99.90;;;;;;4022118;24;20223;-92
2020/12/21 07:18:45;;;;;;;16.83;4.13;;;9.10;99.90;;;;;;4001387;29;20168;-90
2020/12/21 07:20:46;;;;;;;17.27;4.37;;;9.00;99.90;;;;;;3998518;29;20239;-89
2020/12/21 07:22:47;;;;;;;13.40;3.77;;;8.90;99.90;;;;;;4015415;29;20191;-92
2020/12/21 07:24:47;;;;;;;11.50;3.90;;;8.80;99.90;;;;;;3985333;29;20200;-93
2020/12/21 07:26:49;;;;;;;16.13;3.43;;;8.90;99.90;;;;;;3985793;29;20176;-89
2020/12/21 07:28:50;;;;;;;13.37;3.33;;;9.00;99.90;;;;;;3998916;29;20258;-92
2020/12/21 07:30:51;;;;;;;10.83;3.97;;;9.00;99.90;;;;;;4000354;29;20180;-92
2020/12/21 07:32:52;;;;;;;14.60;3.70;;;9.00;99.90;;;;;;3985876;29;20176;-93
2020/12/21 07:34:53;;;;;;;12.90;3.87;;;9.00;99.90;;;;;;3972660;29;20204;-93
2020/12/21 07:36:53;;;;;;;18.83;3.20;;;9.10;99.90;;;;;;3986862;29;20183;-94
2020/12/21 07:39:10;;;;;;;14.97;4.20;;;9.00;99.90;;;;;;4000870;29;20188;-92
2020/12/21 07:41:11;;;;;;;12.00;3.87;;;9.00;99.90;;;;;;4002828;29;20214;-92
2020/12/21 07:43:17;;;;;;;11.57;3.20;;;9.00;99.90;;;;;;3989041;29;20180;-94
2020/12/21 07:45:20;;;;;;;15.00;3.30;;;9.10;99.90;;;;;;3973297;29;20236;-92
2020/12/21 07:47:35;;;;;;;13.90;3.67;;;9.20;99.90;;;;;;3987989;29;20188;-94
2020/12/21 07:49:38;;;;;;;13.73;3.33;;;9.30;99.90;;;;;;4020846;29;20683;-92
2020/12/21 07:51:43;;;;;;;10.23;3.00;;;9.20;99.90;;;;;;4020156;29;20250;-93
2020/12/21 07:53:44;;;;;;;8.50;3.10;;;9.20;99.90;;;;;;4003538;29;20179;-94
2020/12/21 07:55:56;;;;;;;13.47;3.70;;;9.20;99.90;;;;;;4018131;29;20182;-91
2020/12/21 07:57:57;;;;;;;14.33;3.50;;;9.30;99.90;;;;;;4004833;29;20209;-91
2020/12/21 07:59:58;;;;;;;10.23;3.17;;;9.40;99.90;;;;;;4005135;29;20211;-92
2020/12/21 08:02:05;;;;;;;15.23;3.90;;;9.30;99.90;;;;;;4002150;29;20662;-92
2020/12/21 08:04:16;;;;;;;12.20;2.93;;;9.40;99.90;;;;;;4019647;29;20263;-94
2020/12/21 08:06:25;;;;;;;13.70;3.00;;;9.30;99.90;;;;;;4019813;29;20191;-90
2020/12/21 08:08:26;;;;;;;14.50;3.80;;;9.20;99.90;;;;;;3989498;29;20196;-94
2020/12/21 08:10:26;;;;;;;16.33;3.53;;;9.20;99.90;;;;;;4002931;29;20183;-94
2020/12/21 08:12:31;;;;;;;13.20;2.90;;;9.30;99.90;;;;;;3988007;29;20188;-93
2020/12/21 08:14:32;;;;;;;7.83;2.83;;;9.20;99.90;;;;;;4003610;29;20211;-93
2020/12/21 08:16:43;;;;;;;12.83;3.40;;;9.20;99.90;;;;;;3989176;29;20236;-92
2020/12/21 08:18:52;;;;;;;13.20;3.07;;;9.20;99.90;;;;;;4002379;29;20183;-94
2020/12/21 08:20:54;;;;;;;8.87;2.73;;;9.30;99.90;;;;;;4002722;29;20212;-92
2020/12/21 08:22:55;;;;;;;8.87;2.50;;;9.30;99.90;;;;;;3987685;29;20168;-93
2020/12/21 08:25:26;;;;;;;11.53;2.60;;;9.30;99.90;;;;;;4005090;29;20206;-92
2020/12/21 08:27:26;;;;;;;10.07;2.77;;;9.30;99.90;;;;;;4017554;29;20198;-94
2020/12/21 08:29:27;;;;;;;9.30;3.00;;;9.40;99.90;;;;;;3985914;29;20184;-92
2020/12/21 08:31:29;;;;;;;11.03;2.37;;;9.50;99.90;;;;;;3985469;29;20184;-90
2020/12/21 08:33:30;;;;;;;8.00;2.23;;;9.30;99.90;;;;;;3986137;29;20186;-91
2020/12/21 08:35:31;;;;;;;11.00;2.30;;;9.40;99.90;;;;;;3985939;29;20616;-92
2020/12/21 08:37:32;;;;;;;6.77;2.53;;;9.40;99.90;;;;;;4001170;29;20172;-96
2020/12/21 08:39:33;;;;;;;11.87;2.40;;;9.40;99.90;;;;;;4003451;29;20346;-94
2020/12/21 08:41:43;;;;;;;8.00;2.10;;;9.40;99.90;;;;;;4003423;29;20184;-93
2020/12/21 08:44:23;;;;;;;5.40;1.73;;;9.30;99.90;;;;;;3996997;29;20175;-95
2020/12/21 08:46:43;;;;;;;9.03;2.20;;;9.30;99.90;;;;;;3995660;29;20188;-91
2020/12/21 08:49:10;;;;;;;;;;;;;;;;;;;;;
2020/12/21 08:51:40;;;;;;;11.03;2.30;;;9.30;99.90;;;;;;3996004;29;20237;-93
2020/12/21 08:53:48;;;;;;;5.53;1.43;;;9.40;99.90;;;;;;3980802;29;20204;-91
2020/12/21 08:56:12;;;;;;;7.67;1.60;;;9.40;99.90;;;;;;4010951;29;20566;-95
2020/12/21 08:58:34;;;;;;;6.73;1.73;;;9.30;99.90;;;;;;4008428;29;20528;-92
2020/12/21 09:00:35;;;;;;;5.60;1.30;;;9.40;99.90;;;;;;3977996;29;20220;-91
2020/12/21 09:02:36;;;;;;;6.53;1.67;;;9.30;99.90;;;;;;4007465;29;20219;-91
2020/12/21 09:04:36;;;;;;;8.27;1.90;;;9.30;99.90;;;;;;3977122;29;20680;-93
2020/12/21 09:06:37;;;;;;;8.30;1.73;;;9.40;99.90;;;;;;3977277;29;20176;-94
2020/12/21 09:08:38;;;;;;;6.30;1.70;;;9.40;99.90;;;;;;3992197;29;20650;-93
2020/12/21 09:10:40;;;;;;;5.70;1.23;;;9.40;99.90;;;;;;3991944;29;20187;-91
2020/12/21 09:12:41;;;;;;;8.13;1.40;;;9.50;99.90;;;;;;3976976;29;20583;-91
2020/12/21 09:14:42;;;;;;;8.60;1.57;;;9.60;99.90;;;;;;3992262;29;20203;-92
2020/12/21 09:16:44;;;;;;;9.93;1.50;;;9.60;99.90;;;;;;3976682;29;20723;-92
2020/12/21 09:18:48;;;;;;;23.33;1.63;;;9.60;99.90;;;;;;3991588;29;20160;-93
2020/12/21 09:20:49;;;;;;;5.13;1.30;;;9.60;99.90;;;;;;3976472;29;20247;-92
2020/12/21 09:22:50;;;;;;;7.30;1.43;;;9.50;99.90;;;;;;3976702;29;20220;-91
2020/12/21 09:24:50;;;;;;;3.27;1.10;;;9.50;99.90;;;;;;3976502;29;20204;-92
2020/12/21 09:26:51;;;;;;;5.13;1.27;;;9.50;99.90;;;;;;3976427;29;20214;-94
2020/12/21 09:28:54;;;;;;;3.83;1.10;;;9.50;99.90;;;;;;3976642;29;20176;-96
2020/12/21 09:30:54;;;;;;;7.30;1.20;;;9.60;99.90;;;;;;3976552;29;20222;-92
2020/12/21 09:32:55;;;;;;;4.07;1.10;;;9.70;99.90;;;;;;3991539;29;20180;-94
2020/12/21 09:34:56;;;;;;;6.43;1.33;;;9.80;99.90;;;;;;3991812;29;20704;-92
2020/12/21 09:36:57;;;;;;;5.17;1.20;;;9.90;99.90;;;;;;3976390;29;20200;-93
2020/12/21 09:38:58;;;;;;;6.13;0.97;;;9.90;99.90;;;;;;3976381;29;20245;-93
2020/12/21 09:40:59;;;;;;;5.70;1.00;;;9.90;99.90;;;;;;3976455;29;20188;-93
2020/12/21 09:42:59;;;;;;;2.53;0.73;;;10.00;99.90;;;;;;3991572;29;20644;-94
2020/12/21 09:45:00;;;;;;;6.17;1.37;;;10.00;99.90;;;;;;3976183;29;20257;-93
2020/12/21 09:47:01;;;;;;;6.77;1.00;;;9.90;99.90;;;;;;4006461;29;20186;-91
2020/12/21 09:49:04;;;;;;;3.37;0.97;;;10.00;99.90;;;;;;3991411;29;20218;-93
2020/12/21 09:51:05;;;;;;;4.90;0.80;;;10.10;99.90;;;;;;3991390;29;20180;-92
2020/12/21 09:53:06;;;;;;;3.40;0.80;;;10.10;99.90;;;;;;3976226;29;20173;-92
2020/12/21 09:55:11;;;;;;;4.77;1.00;;;9.90;99.90;;;;;;3976160;29;20205;-94
2020/12/21 09:57:12;;;;;;;5.37;1.17;;;10.00;99.90;;;;;;3991494;29;20176;-92
2020/12/21 09:59:13;;;;;;;3.87;0.97;;;9.90;99.90;;;;;;3991108;29;20278;-94
2020/12/21 10:01:13;;;;;;;4.00;0.83;;;10.00;99.90;;;;;;3990833;29;20187;-91
2020/12/21 10:03:14;;;;;;;3.33;0.70;;;9.90;99.90;;;;;;3990917;29;20175;-90
2020/12/21 10:05:15;;;;;;;2.43;0.90;;;9.80;99.90;;;;;;3975694;29;20196;-91
2020/12/21 10:07:16;;;;;;;2.30;0.37;;;9.80;99.90;;;;;;3991140;29;20215;-93
2020/12/21 10:09:17;;;;;;;5.57;0.90;;;9.70;99.90;;;;;;3991142;29;20183;-91
2020/12/21 10:11:19;;;;;;;2.00;0.60;;;9.80;99.90;;;;;;3988418;29;20229;-90
2020/12/21 10:13:19;;;;;;;4.13;0.83;;;9.80;99.90;;;;;;3990924;29;20184;-92
2020/12/21 10:15:20;;;;;;;3.93;0.80;;;9.70;99.90;;;;;;3966916;29;720904;-91
2020/12/21 10:17:21;;;;;;;6.90;0.90;;;9.70;99.90;;;;;;3994668;29;20183;-91
2020/12/21 10:19:22;;;;;;;2.13;0.73;;;9.80;99.90;;;;;;3994619;29;20215;-91
2020/12/21 10:21:22;;;;;;;5.43;0.83;;;9.70;99.90;;;;;;3994662;29;20180;-93
2020/12/21 10:23:23;;;;;;;3.20;0.80;;;9.70;99.90;;;;;;3994781;29;20176;-91
2020/12/21 10:25:25;;;;;;;4.20;1.10;;;9.80;99.90;;;;;;3980549;29;20546;-90
2020/12/21 10:27:27;;;;;;;3.93;1.00;;;9.80;99.90;;;;;;3979925;29;20172;-90
2020/12/21 10:29:28;;;;;;;2.10;0.70;;;9.90;99.90;;;;;;3994631;29;20244;-90
2020/12/21 10:31:29;;;;;;;4.83;0.80;;;9.80;99.90;;;;;;3979740;29;20176;-94
2020/12/21 10:33:30;;;;;;;1.80;0.97;;;9.90;99.90;;;;;;3979594;29;20271;-90
2020/12/21 10:35:31;;;;;;;3.40;0.70;;;9.80;99.90;;;;;;3979354;29;20642;-91
2020/12/21 10:37:31;;;;;;;1.63;0.60;;;9.90;99.90;;;;;;3979579;29;20263;-91
2020/12/21 10:39:32;;;;;;;2.80;0.80;;;9.80;99.90;;;;;;3979150;29;20568;-90
2020/12/21 10:41:34;;;;;;;2.77;0.70;;;9.90;99.90;;;;;;3994122;29;20184;-92